createdAt,value
2022-10-19T00:01:48.012Z,101674.81
2022-10-19T00:06:50.584Z,101674.44
2022-10-19T00:11:54.659Z,101681.88
2022-10-19T00:16:58.174Z,101686.72
2022-10-19T00:22:00.977Z,101679.88
2022-10-19T00:27:06.248Z,101670.09
2022-10-19T00:32:09.033Z,101676.47
2022-10-19T00:37:11.592Z,101673.22
2022-10-19T00:42:15.737Z,101685.91
2022-10-19T00:47:24.393Z,101696.88
2022-10-19T00:52:28.732Z,101701.94
2022-10-19T00:57:33.973Z,101699.38
2022-10-19T01:02:37.400Z,101702.44
2022-10-19T01:07:40.509Z,101697.78
2022-10-19T01:13:06.081Z,101695.84
2022-10-19T01:18:20.563Z,101686.59
2022-10-19T01:23:46.527Z,101694.19
2022-10-19T01:29:05.737Z,101682.50
2022-10-19T01:34:12.740Z,101688.72
2022-10-19T01:39:24.292Z,101702.78
2022-10-19T01:44:31.666Z,101701.94
2022-10-19T01:49:41.714Z,101700.56
2022-10-19T01:54:48.748Z,101698.16
2022-10-19T01:59:53.604Z,101702.28
2022-10-19T02:04:58.707Z,101689.53
2022-10-19T02:10:01.960Z,101687.81
2022-10-19T02:15:12.074Z,101695.69
2022-10-19T02:20:17.269Z,101688.88
2022-10-19T02:25:20.448Z,101684.50
2022-10-19T02:30:23.277Z,101684.91
2022-10-19T02:35:27.640Z,101693.19
2022-10-19T02:40:33.608Z,101698.03
2022-10-19T02:45:40.321Z,101688.19
2022-10-19T02:50:47.531Z,101699.28
2022-10-19T02:55:51.941Z,101697.50
2022-10-19T03:00:54.762Z,101695.44
2022-10-19T03:05:58.892Z,101691.69
2022-10-19T03:11:01.898Z,101687.34
2022-10-19T03:16:09.149Z,101688.34
2022-10-19T03:21:14.703Z,101682.22
2022-10-19T03:26:18.838Z,101682.84
2022-10-19T03:31:21.572Z,101679.84
2022-10-19T03:36:27.744Z,101683.34
2022-10-19T03:41:32.271Z,101685.06
2022-10-19T03:46:35.737Z,101691.38
2022-10-19T03:51:39.913Z,101694.03
2022-10-19T03:56:43.061Z,101690.97
2022-10-19T04:01:46.800Z,101693.56
2022-10-19T04:06:53.425Z,101695.97
2022-10-19T04:11:56.173Z,101698.78
2022-10-19T04:16:58.751Z,101696.13
2022-10-19T04:22:02.872Z,101692.25
2022-10-19T04:27:05.633Z,101688.03
2022-10-19T04:32:08.238Z,101692.91
2022-10-19T04:37:12.374Z,101683.44
2022-10-19T04:42:15.125Z,101678.31
2022-10-19T04:47:17.717Z,101692.00
2022-10-19T04:52:22.003Z,101687.78
2022-10-19T04:57:24.761Z,101686.88
2022-10-19T05:02:27.348Z,101689.97
2022-10-19T05:07:31.794Z,101702.84
2022-10-19T05:12:35.830Z,101703.47
2022-10-19T05:17:38.546Z,101691.50
2022-10-19T05:22:42.494Z,101690.38
2022-10-19T05:27:45.771Z,101691.81
2022-10-19T05:32:49.003Z,101687.38
2022-10-19T05:37:56.719Z,101690.31
2022-10-19T05:42:59.473Z,101681.38
2022-10-19T05:48:02.060Z,101677.09
2022-10-19T05:53:06.177Z,101679.75
2022-10-19T05:58:08.880Z,101681.25
2022-10-19T06:03:11.592Z,101670.53
2022-10-19T06:08:16.108Z,101680.53
2022-10-19T06:13:20.837Z,101684.78
2022-10-19T06:18:25.621Z,101688.09
2022-10-19T06:23:29.818Z,101678.13
2022-10-19T06:28:32.609Z,101682.31
2022-10-19T06:33:35.271Z,101688.56
2022-10-19T06:38:39.769Z,101702.78
2022-10-19T06:43:43.330Z,101704.84
2022-10-19T06:48:46.101Z,101707.09
2022-10-19T06:53:52.915Z,101709.00
2022-10-19T06:58:59.142Z,101706.69
2022-10-19T07:04:02.669Z,101708.22
2022-10-19T07:09:06.770Z,101704.16
2022-10-19T07:14:10.275Z,101707.47
2022-10-19T07:19:14.123Z,101715.69
2022-10-19T07:24:18.877Z,101712.63
2022-10-19T07:29:21.580Z,101719.34
2022-10-19T07:34:25.515Z,101722.13
2022-10-19T07:39:32.515Z,101718.56
2022-10-19T07:44:35.307Z,101717.22
2022-10-19T07:49:38.320Z,101719.06
2022-10-19T07:54:42.596Z,101718.16
2022-10-19T07:59:45.644Z,101711.16
2022-10-19T08:05:00.844Z,101712.44
2022-10-19T08:10:08.042Z,101720.69
2022-10-19T08:15:11.165Z,101717.56
2022-10-19T08:20:13.920Z,101716.09
2022-10-19T08:25:17.984Z,101718.56
2022-10-19T08:30:20.937Z,101719.38
2022-10-19T08:35:23.759Z,101719.72
2022-10-19T08:40:29.769Z,101720.06
2022-10-19T08:45:42.516Z,101715.22
2022-10-19T08:50:45.944Z,101722.78
2022-10-19T08:56:04.543Z,101714.47
2022-10-19T09:01:15.040Z,101713.09
2022-10-19T09:06:24.057Z,101707.03
2022-10-19T09:11:31.371Z,101704.09
2022-10-19T09:16:35.080Z,101698.13
2022-10-19T09:21:47.277Z,101704.53
2022-10-19T09:26:54.452Z,101706.63
2022-10-19T09:32:01.801Z,101711.09
2022-10-19T09:37:04.718Z,101711.97
2022-10-19T09:42:18.180Z,101705.78
2022-10-19T09:47:36.343Z,101694.34
2022-10-19T09:52:41.693Z,101692.50
2022-10-19T09:57:47.169Z,101683.00
2022-10-19T10:02:51.579Z,101683.06
2022-10-19T10:07:56.686Z,101700.31
2022-10-19T10:13:01.938Z,101700.00
2022-10-19T10:18:04.892Z,101688.56
2022-10-19T10:23:11.094Z,101694.41
2022-10-19T10:28:22.224Z,101695.88
2022-10-19T10:33:40.393Z,101708.84
2022-10-19T10:38:50.980Z,101719.22
2022-10-19T10:44:00.765Z,101710.47
2022-10-19T10:49:08.743Z,101699.59
2022-10-19T10:54:19.423Z,101691.97
2022-10-19T10:59:28.649Z,101686.06
2022-10-19T11:04:36.922Z,101674.25
2022-10-19T11:09:44.618Z,101663.78
2022-10-19T11:14:52.162Z,101649.38
2022-10-19T11:19:55.015Z,101644.69
2022-10-19T11:25:08.132Z,101634.25
2022-10-19T11:30:15.907Z,101630.59
2022-10-19T11:35:31.743Z,101621.38
2022-10-19T11:40:42.746Z,101620.84
2022-10-19T11:46:05.766Z,101605.13
2022-10-19T11:51:21.912Z,101606.25
2022-10-19T11:56:44.660Z,101604.66
2022-10-19T12:01:55.349Z,101590.16
2022-10-19T12:07:09.809Z,101589.53
2022-10-19T12:12:24.876Z,101581.16
2022-10-19T12:17:33.267Z,101570.66
2022-10-19T12:22:38.471Z,101562.41
2022-10-19T12:27:42.751Z,101571.91
2022-10-19T12:33:03.896Z,101562.22
2022-10-19T12:38:11.645Z,101546.94
2022-10-19T12:43:20.956Z,101540.78
2022-10-19T12:48:25.590Z,101541.41
2022-10-19T12:53:31.456Z,101528.06
2022-10-19T12:58:43.632Z,101520.72
2022-10-19T13:04:06.549Z,101520.53
2022-10-19T13:09:21.418Z,101527.34
2022-10-19T13:14:44.560Z,101514.41
2022-10-19T13:19:48.480Z,101511.47
2022-10-19T13:25:34.062Z,101496.19
2022-10-19T13:31:06.209Z,101491.03
2022-10-19T13:36:14.235Z,101476.06
2022-10-19T13:41:21.487Z,101480.50
2022-10-19T13:46:35.473Z,101478.94
2022-10-19T13:51:51.137Z,101477.38
2022-10-19T13:57:07.463Z,101468.47
2022-10-19T14:02:47.831Z,101464.91
2022-10-19T14:08:04.318Z,101457.97
2022-10-19T14:13:12.868Z,101449.34
2022-10-19T14:18:23.925Z,101450.06
2022-10-19T14:23:29.656Z,101442.44
2022-10-19T14:28:33.502Z,101445.72
2022-10-19T14:33:40.669Z,101447.91
2022-10-19T14:38:45.172Z,101433.97
2022-10-19T14:43:48.095Z,101434.00
2022-10-19T14:48:51.730Z,101428.25
2022-10-19T14:54:00.550Z,101422.44
2022-10-19T14:59:07.833Z,101414.00
2022-10-19T15:04:10.624Z,101402.84
2022-10-19T15:09:36.785Z,101402.81
2022-10-19T15:14:46.638Z,101397.38
2022-10-19T15:19:49.571Z,101395.94
2022-10-19T15:25:00.124Z,101387.22
2022-10-19T15:30:06.653Z,101383.81
2022-10-19T15:35:12.227Z,101378.63
2022-10-19T15:40:23.831Z,101371.03
2022-10-19T15:45:35.380Z,101375.56
2022-10-19T15:50:43.490Z,101378.63
2022-10-19T15:55:47.652Z,101375.63
2022-10-19T16:00:50.463Z,101370.91
2022-10-19T16:05:53.343Z,101364.81
2022-10-19T16:10:57.452Z,101364.81
2022-10-19T16:16:10.459Z,101364.94
2022-10-19T16:21:14.125Z,101360.97
2022-10-19T16:26:19.484Z,101367.81
2022-10-19T16:31:23.638Z,101366.84
2022-10-19T16:36:26.576Z,101363.81
2022-10-19T16:41:30.802Z,101374.13
2022-10-19T16:46:33.752Z,101372.91
2022-10-19T16:51:37.651Z,101375.03
2022-10-19T16:56:46.047Z,101371.63
2022-10-19T17:01:49.418Z,101373.13
2022-10-19T17:06:52.325Z,101363.63
2022-10-19T17:11:56.437Z,101367.47
2022-10-19T17:16:59.209Z,101358.50
2022-10-19T17:22:02.878Z,101355.84
2022-10-19T17:27:07.225Z,101357.31
2022-10-19T17:32:10.004Z,101359.91
2022-10-19T17:37:12.587Z,101358.03
2022-10-19T17:42:16.717Z,101351.31
2022-10-19T17:47:19.436Z,101346.13
2022-10-19T17:52:22.057Z,101338.06
2022-10-19T17:57:26.228Z,101344.03
2022-10-19T18:02:29.014Z,101338.34
2022-10-19T18:07:32.209Z,101332.59
2022-10-19T18:12:36.645Z,101331.94
2022-10-19T18:17:39.823Z,101332.19
2022-10-19T18:27:51.917Z,101312.97
2022-10-19T18:32:55.085Z,101304.22
2022-10-19T18:37:58.316Z,101289.56
2022-10-19T18:43:02.668Z,101288.78
2022-10-19T18:48:05.914Z,101288.91
2022-10-19T18:53:08.669Z,101285.44
2022-10-19T18:58:13.211Z,101269.34
2022-10-19T19:03:15.952Z,101271.19
2022-10-19T19:08:18.500Z,101261.41
2022-10-19T19:13:23.290Z,101261.88
2022-10-19T19:18:26.438Z,101262.28
2022-10-19T19:23:29.424Z,101252.47
2022-10-19T19:28:35.503Z,101253.47
2022-10-19T19:33:40.726Z,101249.72
2022-10-19T19:38:44.157Z,101253.84
2022-10-19T19:43:48.431Z,101249.91
2022-10-19T19:48:51.311Z,101239.53
2022-10-19T19:53:54.303Z,101233.69
2022-10-19T19:59:00.344Z,101230.44
2022-10-19T20:09:11.712Z,101244.28
2022-10-19T20:14:16.152Z,101246.19
2022-10-19T20:19:18.966Z,101250.97
2022-10-19T20:24:21.717Z,101248.50
2022-10-19T20:29:25.984Z,101255.16
2022-10-19T20:34:28.770Z,101250.66
2022-10-19T20:39:31.361Z,101247.94
2022-10-19T20:44:35.525Z,101237.22
2022-10-19T20:49:38.565Z,101232.44
2022-10-19T20:54:41.412Z,101218.84
2022-10-19T20:59:45.713Z,101206.75
2022-10-19T21:04:48.523Z,101191.78
2022-10-19T21:09:51.505Z,101171.28
2022-10-19T21:14:55.623Z,101156.38
2022-10-19T21:19:58.331Z,101158.97
2022-10-19T21:31:08.623Z,101149.31
2022-10-19T21:36:14.661Z,101155.00
2022-10-19T21:41:23.830Z,101164.00
2022-10-19T21:46:34.237Z,101167.53
2022-10-19T21:51:40.528Z,101180.91
2022-10-19T21:56:43.879Z,101174.25
2022-10-19T22:01:47.979Z,101164.59
2022-10-19T22:06:50.793Z,101146.66
2022-10-19T22:11:53.484Z,101145.44
2022-10-19T22:16:57.342Z,101126.72
2022-10-19T22:22:00.029Z,101122.59
2022-10-19T22:27:02.546Z,101129.16
2022-10-19T22:32:06.656Z,101133.53
2022-10-19T22:37:09.326Z,101117.25
2022-10-19T22:42:11.829Z,101100.28
2022-10-19T22:47:15.958Z,101097.50
2022-10-19T23:05:43.178Z,101074.22
2022-10-19T23:10:47.891Z,101077.50
2022-10-19T23:15:52.678Z,101070.31
2022-10-19T23:21:06.805Z,101067.47
2022-10-19T23:26:23.239Z,101086.53
2022-10-19T23:31:30.327Z,101072.94
2022-10-19T23:36:33.108Z,101069.13
2022-10-19T23:41:37.579Z,101065.44
2022-10-19T23:46:40.341Z,101042.94
2022-10-19T23:51:42.860Z,101047.91
2022-10-19T23:56:46.866Z,101032.38
